createdAt,value
2019-02-23T00:00:53.133Z,27.30
2019-02-23T00:01:58.647Z,28.60
2019-02-23T00:03:04.151Z,28.60
2019-02-23T00:04:09.654Z,29.10
2019-02-23T00:05:15.171Z,28.10
2019-02-23T00:06:29.390Z,29.30
2019-02-23T00:07:26.190Z,29.80
2019-02-23T00:08:31.692Z,28.50
2019-02-23T00:09:37.286Z,29.00
2019-02-23T00:10:42.705Z,30.20
2019-02-23T00:11:48.221Z,30.50
2019-02-23T00:12:53.733Z,29.60
2019-02-23T00:13:59.235Z,29.40
2019-02-23T00:15:04.749Z,32.20
2019-02-23T00:16:10.260Z,31.10
2019-02-23T00:17:15.770Z,28.40
2019-02-23T00:18:21.264Z,28.90
2019-02-23T00:19:26.784Z,27.80
2019-02-23T00:20:32.292Z,27.40
2019-02-23T00:21:37.801Z,28.00
2019-02-23T00:22:43.308Z,29.60
2019-02-23T00:23:48.824Z,28.10
2019-02-23T00:24:54.337Z,29.20
2019-02-23T00:25:59.840Z,25.50
2019-02-23T00:27:05.340Z,25.40
2019-02-23T00:28:10.857Z,25.40
2019-02-23T00:29:16.356Z,24.90
2019-02-23T00:30:21.877Z,26.10
2019-02-23T00:31:27.380Z,24.90
2019-02-23T00:32:32.899Z,26.00
2019-02-23T00:33:38.397Z,26.10
2019-02-23T00:34:43.904Z,25.70
2019-02-23T00:35:49.416Z,25.00
2019-02-23T00:36:54.924Z,24.80
2019-02-23T00:38:00.423Z,23.90
2019-02-23T00:39:05.943Z,23.90
2019-02-23T00:40:11.441Z,24.60
2019-02-23T00:41:16.960Z,25.10
2019-02-23T00:42:22.461Z,25.20
2019-02-23T00:43:27.974Z,25.30
2019-02-23T00:44:33.481Z,25.60
2019-02-23T00:45:38.988Z,25.30
2019-02-23T00:46:44.502Z,24.00
2019-02-23T00:47:50.008Z,24.70
2019-02-23T00:48:55.514Z,23.40
2019-02-23T00:50:01.022Z,26.20
2019-02-23T00:51:06.540Z,23.80
2019-02-23T00:52:12.040Z,25.00
2019-02-23T00:53:17.552Z,25.10
2019-02-23T00:54:23.051Z,25.50
2019-02-23T00:55:28.564Z,23.50
2019-02-23T00:56:34.071Z,24.00
2019-02-23T00:57:39.585Z,24.60
2019-02-23T00:58:45.089Z,25.40
2019-02-23T00:59:50.602Z,24.50
2019-02-23T01:00:56.106Z,24.20
2019-02-23T01:02:01.626Z,23.60
2019-02-23T01:03:07.169Z,25.70
2019-02-23T01:04:12.623Z,24.80
2019-02-23T01:05:18.143Z,23.70
2019-02-23T01:06:23.649Z,24.30
2019-02-23T01:07:29.157Z,23.60
2019-02-23T01:08:34.674Z,23.10
2019-02-23T01:09:40.183Z,23.70
2019-02-23T01:10:45.682Z,22.90
2019-02-23T01:11:51.191Z,23.70
2019-02-23T01:12:56.699Z,25.30
2019-02-23T01:14:02.206Z,22.60
2019-02-23T01:15:07.714Z,24.50
2019-02-23T01:16:13.219Z,25.60
2019-02-23T01:17:18.731Z,23.40
2019-02-23T01:18:24.239Z,24.30
2019-02-23T01:19:29.751Z,23.80
2019-02-23T01:20:35.257Z,24.70
2019-02-23T01:21:40.768Z,22.90
2019-02-23T01:22:46.273Z,23.60
2019-02-23T01:23:51.788Z,22.40
2019-02-23T01:24:57.290Z,24.90
2019-02-23T01:26:02.800Z,25.40
2019-02-23T01:27:08.319Z,24.20
2019-02-23T01:28:13.811Z,23.80
2019-02-23T01:29:19.328Z,25.50
2019-02-23T01:30:24.830Z,24.80
2019-02-23T01:31:30.338Z,23.60
2019-02-23T01:32:35.915Z,24.50
2019-02-23T01:33:41.355Z,24.00
2019-02-23T01:34:46.872Z,26.70
2019-02-23T01:35:52.371Z,25.60
2019-02-23T01:36:57.890Z,24.80
2019-02-23T01:38:03.399Z,24.20
2019-02-23T01:39:08.901Z,24.10
2019-02-23T01:40:14.410Z,25.20
2019-02-23T01:41:19.909Z,24.60
2019-02-23T01:42:25.421Z,23.50
2019-02-23T01:43:30.929Z,25.40
2019-02-23T01:44:36.438Z,23.50
2019-02-23T01:45:42.747Z,23.90
2019-02-23T01:46:47.453Z,24.30
2019-02-23T01:47:52.958Z,23.40
2019-02-23T01:48:58.479Z,24.50
2019-02-23T01:50:03.985Z,25.50
2019-02-23T01:51:09.486Z,24.60
2019-02-23T01:52:14.996Z,23.60
2019-02-23T01:53:20.502Z,23.40
2019-02-23T01:54:26.022Z,25.40
2019-02-23T01:55:31.520Z,23.70
2019-02-23T01:56:37.030Z,23.30
2019-02-23T01:57:42.614Z,23.40
2019-02-23T01:58:48.047Z,23.20
2019-02-23T01:59:53.551Z,22.40
2019-02-23T02:00:59.063Z,23.30
2019-02-23T02:02:04.570Z,22.30
2019-02-23T02:03:10.077Z,22.20
2019-02-23T02:04:15.586Z,21.80
2019-02-23T02:05:21.095Z,22.60
2019-02-23T02:06:26.608Z,23.00
2019-02-23T02:07:32.107Z,22.70
2019-02-23T02:08:37.617Z,23.40
2019-02-23T02:09:43.125Z,24.00
2019-02-23T02:10:48.632Z,22.90
2019-02-23T02:11:54.142Z,23.60
2019-02-23T02:12:59.650Z,22.20
2019-02-23T02:14:05.158Z,21.30
2019-02-23T02:15:10.675Z,21.70
2019-02-23T02:16:16.176Z,20.60
2019-02-23T02:17:21.686Z,20.50
2019-02-23T02:18:27.191Z,20.60
2019-02-23T02:19:32.701Z,21.80
2019-02-23T02:20:38.207Z,24.00
2019-02-23T02:21:43.715Z,23.30
2019-02-23T02:22:49.226Z,21.10
2019-02-23T02:23:54.730Z,20.60
2019-02-23T02:25:00.339Z,21.20
2019-02-23T02:26:05.749Z,22.30
2019-02-23T02:27:11.257Z,21.70
2019-02-23T02:28:16.772Z,21.10
2019-02-23T02:29:22.271Z,19.80
2019-02-23T02:30:27.775Z,20.60
2019-02-23T02:31:33.284Z,20.50
2019-02-23T02:32:38.788Z,22.10
2019-02-23T02:33:44.304Z,21.40
2019-02-23T02:34:49.804Z,21.40
2019-02-23T02:35:55.318Z,21.70
2019-02-23T02:37:00.826Z,23.00
2019-02-23T02:38:06.333Z,22.80
2019-02-23T02:39:11.840Z,19.90
2019-02-23T02:40:17.346Z,20.00
2019-02-23T02:41:22.858Z,20.40
2019-02-23T02:42:28.361Z,20.30
2019-02-23T02:43:33.870Z,20.80
2019-02-23T02:44:39.379Z,20.50
2019-02-23T02:45:44.885Z,21.80
2019-02-23T02:46:50.401Z,22.80
2019-02-23T02:47:55.901Z,22.40
2019-02-23T02:49:01.407Z,22.60
2019-02-23T02:50:06.908Z,21.50
2019-02-23T02:51:12.424Z,22.20
2019-02-23T02:52:17.932Z,22.60
2019-02-23T02:53:23.441Z,22.80
2019-02-23T02:54:28.949Z,22.30
2019-02-23T02:55:34.454Z,24.60
2019-02-23T02:56:39.960Z,23.60
2019-02-23T02:57:45.468Z,24.20
2019-02-23T02:58:50.976Z,23.30
2019-02-23T02:59:56.491Z,19.80
2019-02-23T03:01:02.007Z,18.70
2019-02-23T03:02:07.498Z,20.80
2019-02-23T03:03:13.011Z,18.90
2019-02-23T03:04:18.513Z,19.00
2019-02-23T03:05:24.025Z,20.70
2019-02-23T03:06:29.537Z,20.50
2019-02-23T03:07:35.054Z,21.10
2019-02-23T03:08:40.541Z,21.10
2019-02-23T03:09:46.050Z,21.80
2019-02-23T03:10:51.577Z,19.80
2019-02-23T03:11:57.065Z,19.10
2019-02-23T03:13:02.573Z,18.60
2019-02-23T03:14:08.076Z,21.20
2019-02-23T03:15:13.587Z,19.90
2019-02-23T03:16:19.094Z,19.40
2019-02-23T03:17:24.600Z,19.30
2019-02-23T03:18:30.130Z,20.70
2019-02-23T03:19:35.615Z,18.50
2019-02-23T03:20:41.129Z,19.20
2019-02-23T03:21:46.630Z,19.60
2019-02-23T03:22:52.141Z,21.00
2019-02-23T03:23:57.640Z,21.60
2019-02-23T03:25:03.152Z,21.60
2019-02-23T03:26:08.657Z,21.10
2019-02-23T03:27:14.165Z,21.60
2019-02-23T03:28:19.677Z,19.80
2019-02-23T03:29:25.186Z,23.50
2019-02-23T03:30:30.689Z,18.60
2019-02-23T03:31:36.206Z,18.80
2019-02-23T03:32:41.721Z,19.10
2019-02-23T03:33:47.221Z,19.00
2019-02-23T03:34:52.726Z,20.40
2019-02-23T03:35:58.227Z,22.90
2019-02-23T03:37:03.729Z,19.00
2019-02-23T03:38:09.239Z,19.80
2019-02-23T03:39:14.746Z,19.90
2019-02-23T03:40:20.255Z,20.10
2019-02-23T03:41:25.769Z,19.30
2019-02-23T03:42:31.268Z,20.10
2019-02-23T03:43:36.775Z,18.60
2019-02-23T03:44:42.284Z,17.70
2019-02-23T03:45:47.784Z,18.10
2019-02-23T03:46:53.299Z,18.20
2019-02-23T03:47:58.805Z,18.70
2019-02-23T03:49:04.311Z,16.90
2019-02-23T03:50:09.820Z,16.90
2019-02-23T03:51:15.325Z,15.60
2019-02-23T03:52:20.842Z,15.40
2019-02-23T03:53:26.365Z,15.40
2019-02-23T03:54:31.845Z,16.40
2019-02-23T03:55:37.350Z,15.00
2019-02-23T03:56:42.861Z,14.50
2019-02-23T03:57:48.366Z,13.00
2019-02-23T03:58:53.875Z,12.50
2019-02-23T03:59:59.383Z,12.20
2019-02-23T04:01:04.892Z,13.70
2019-02-23T04:02:10.398Z,13.80
2019-02-23T04:03:15.909Z,14.20
2019-02-23T04:04:21.421Z,13.40
2019-02-23T04:05:26.917Z,14.00
2019-02-23T04:06:32.424Z,15.40
2019-02-23T04:07:38.048Z,15.20
2019-02-23T04:08:43.436Z,17.80
2019-02-23T04:09:48.946Z,15.40
2019-02-23T04:10:54.454Z,16.30
2019-02-23T04:11:59.961Z,16.70
2019-02-23T04:13:05.463Z,16.40
2019-02-23T04:14:10.982Z,16.40
2019-02-23T04:15:16.481Z,16.10
2019-02-23T04:16:21.987Z,15.20
2019-02-23T04:17:27.496Z,16.10
2019-02-23T04:18:32.999Z,16.70
2019-02-23T04:19:38.509Z,17.20
2019-02-23T04:20:44.106Z,17.20
2019-02-23T04:21:49.518Z,16.80
2019-02-23T04:22:55.029Z,15.80
2019-02-23T04:24:00.533Z,17.20
2019-02-23T04:25:06.053Z,17.30
2019-02-23T04:26:11.553Z,16.00
2019-02-23T04:27:17.059Z,16.00
2019-02-23T04:28:22.560Z,16.10
2019-02-23T04:29:28.072Z,17.20
2019-02-23T04:30:33.575Z,17.80
2019-02-23T04:31:39.082Z,17.50
2019-02-23T04:32:44.588Z,17.60
2019-02-23T04:33:50.093Z,16.90
2019-02-23T04:34:55.599Z,17.00
2019-02-23T04:36:01.110Z,16.80
2019-02-23T04:37:06.614Z,18.00
2019-02-23T04:38:12.126Z,17.70
2019-02-23T04:39:17.627Z,16.90
2019-02-23T04:40:23.133Z,17.90
2019-02-23T04:41:28.653Z,17.70
2019-02-23T04:42:34.157Z,18.30
2019-02-23T04:43:39.657Z,17.60
2019-02-23T04:44:45.166Z,17.70
2019-02-23T04:45:50.672Z,17.30
2019-02-23T04:46:56.174Z,17.20
2019-02-23T04:48:01.680Z,16.60
2019-02-23T04:49:07.199Z,16.90
2019-02-23T04:50:12.703Z,15.60
2019-02-23T04:51:18.206Z,16.70
2019-02-23T04:52:23.712Z,15.90
2019-02-23T04:53:29.214Z,15.80
2019-02-23T04:54:34.726Z,16.00
2019-02-23T04:55:40.228Z,15.50
2019-02-23T04:56:45.744Z,15.90
2019-02-23T04:57:51.243Z,16.30
2019-02-23T04:58:56.749Z,17.10
2019-02-23T05:00:02.258Z,17.80
2019-02-23T05:01:07.761Z,16.70
2019-02-23T05:02:13.272Z,15.50
2019-02-23T05:03:18.772Z,15.70
2019-02-23T05:04:24.286Z,16.10
2019-02-23T05:05:29.795Z,15.90
2019-02-23T05:06:35.300Z,15.40
2019-02-23T05:07:40.805Z,15.20
2019-02-23T05:08:46.315Z,15.80
2019-02-23T05:09:51.814Z,17.60
2019-02-23T05:10:57.330Z,17.30
2019-02-23T05:12:02.832Z,15.80
2019-02-23T05:13:08.341Z,18.00
2019-02-23T05:14:13.843Z,17.50
2019-02-23T05:15:19.351Z,18.50
2019-02-23T05:16:24.854Z,20.80
2019-02-23T05:17:30.361Z,19.20
2019-02-23T05:18:35.869Z,20.00
2019-02-23T05:19:41.372Z,22.10
2019-02-23T05:20:46.880Z,18.70
2019-02-23T05:21:52.390Z,17.40
2019-02-23T05:22:57.892Z,16.70
2019-02-23T05:24:03.402Z,15.80
2019-02-23T05:25:08.909Z,16.40
2019-02-23T05:26:14.417Z,15.60
2019-02-23T05:27:19.921Z,16.20
2019-02-23T05:28:25.425Z,15.80
2019-02-23T05:29:30.927Z,16.90
2019-02-23T05:30:36.445Z,16.70
2019-02-23T05:31:41.943Z,16.30
2019-02-23T05:32:47.451Z,16.70
2019-02-23T05:33:52.963Z,15.10
2019-02-23T05:34:58.467Z,15.70
2019-02-23T05:36:03.974Z,12.70
2019-02-23T05:37:09.474Z,13.10
2019-02-23T05:38:14.984Z,14.00
2019-02-23T05:39:20.485Z,14.00
2019-02-23T05:40:25.995Z,13.10
2019-02-23T05:41:31.499Z,14.50
2019-02-23T05:42:37.008Z,14.50
2019-02-23T05:43:42.517Z,15.20
2019-02-23T05:44:48.024Z,16.80
2019-02-23T05:45:53.532Z,17.80
2019-02-23T05:46:59.032Z,17.80
2019-02-23T05:48:04.542Z,18.10
2019-02-23T05:49:10.044Z,17.40
2019-02-23T05:50:15.557Z,16.30
2019-02-23T05:51:21.058Z,18.00
2019-02-23T05:52:26.564Z,17.60
2019-02-23T05:53:32.069Z,16.80
2019-02-23T05:54:37.575Z,16.60
2019-02-23T05:55:43.083Z,16.10
2019-02-23T05:56:48.588Z,15.00
2019-02-23T05:57:54.093Z,15.10
2019-02-23T05:58:59.601Z,14.90
2019-02-23T06:00:05.105Z,16.30
2019-02-23T06:01:10.617Z,15.40
2019-02-23T06:02:16.124Z,15.40
2019-02-23T06:03:21.627Z,14.00
2019-02-23T06:04:27.131Z,14.60
2019-02-23T06:05:32.638Z,14.50
2019-02-23T06:06:38.141Z,14.10
2019-02-23T06:07:43.646Z,15.60
2019-02-23T06:08:49.158Z,14.50
2019-02-23T06:09:54.662Z,15.30
2019-02-23T06:11:00.170Z,14.90
2019-02-23T06:12:05.671Z,16.20
2019-02-23T06:13:11.179Z,16.30
2019-02-23T06:14:16.683Z,16.00
2019-02-23T06:15:22.189Z,16.10
2019-02-23T06:16:27.696Z,18.70
2019-02-23T06:17:33.199Z,17.40
2019-02-23T06:18:38.711Z,17.70
2019-02-23T06:19:44.214Z,16.60
2019-02-23T06:20:49.717Z,15.40
2019-02-23T06:21:55.224Z,16.00
2019-02-23T06:23:00.732Z,15.80
2019-02-23T06:24:06.237Z,16.70
2019-02-23T06:25:11.857Z,17.40
2019-02-23T06:26:17.248Z,16.60
2019-02-23T06:27:22.796Z,18.40
2019-02-23T06:28:28.266Z,18.10
2019-02-23T06:29:33.768Z,19.40
2019-02-23T06:30:39.273Z,19.10
2019-02-23T06:31:44.776Z,16.40
2019-02-23T06:32:50.285Z,15.40
2019-02-23T06:33:55.788Z,15.50
2019-02-23T06:35:01.295Z,16.70
2019-02-23T06:36:06.802Z,17.40
2019-02-23T06:37:12.311Z,17.50
2019-02-23T06:38:17.813Z,17.10
2019-02-23T06:39:23.326Z,20.20
2019-02-23T06:40:28.829Z,18.20
2019-02-23T06:41:34.330Z,18.40
2019-02-23T06:42:39.836Z,18.70
2019-02-23T06:43:45.344Z,18.30
2019-02-23T06:44:50.848Z,19.10
2019-02-23T06:45:56.363Z,18.60
2019-02-23T06:47:01.861Z,17.70
2019-02-23T06:48:07.366Z,18.80
2019-02-23T06:49:12.866Z,19.30
2019-02-23T06:50:18.384Z,18.70
2019-02-23T06:51:23.887Z,17.70
2019-02-23T06:52:29.400Z,17.40
2019-02-23T06:53:34.896Z,18.40
2019-02-23T06:54:40.404Z,19.70
2019-02-23T06:55:45.908Z,19.60
2019-02-23T06:56:51.416Z,20.10
2019-02-23T06:57:56.921Z,19.60
2019-02-23T06:59:02.426Z,19.80
2019-02-23T07:00:07.927Z,19.40
2019-02-23T07:01:13.440Z,19.00
2019-02-23T07:02:18.963Z,19.30
2019-02-23T07:03:24.452Z,19.10
2019-02-23T07:04:29.962Z,19.90
2019-02-23T07:05:35.467Z,18.80
2019-02-23T07:06:40.970Z,20.50
2019-02-23T07:07:46.478Z,18.80
2019-02-23T07:08:51.980Z,19.70
2019-02-23T07:09:57.489Z,19.00
2019-02-23T07:11:03.003Z,19.20
2019-02-23T07:12:08.500Z,18.10
2019-02-23T07:13:14.010Z,18.10
2019-02-23T07:14:19.517Z,18.20
2019-02-23T07:15:25.013Z,19.00
2019-02-23T07:16:30.523Z,17.90
2019-02-23T07:17:36.030Z,18.90
2019-02-23T07:18:41.536Z,19.50
2019-02-23T07:19:47.049Z,18.20
2019-02-23T07:20:52.551Z,18.40
2019-02-23T07:21:58.053Z,19.00
2019-02-23T07:23:03.559Z,18.20
2019-02-23T07:24:09.066Z,17.40
2019-02-23T07:25:14.574Z,16.90
2019-02-23T07:26:20.075Z,16.60
2019-02-23T07:27:25.587Z,16.90
2019-02-23T07:28:31.081Z,16.30
2019-02-23T07:29:36.597Z,16.20
2019-02-23T07:30:42.106Z,16.20
2019-02-23T07:31:47.607Z,16.50
2019-02-23T07:32:53.116Z,16.50
2019-02-23T07:33:58.620Z,16.50
2019-02-23T07:35:04.150Z,15.90
2019-02-23T07:36:09.635Z,15.40
2019-02-23T07:37:15.142Z,16.20
2019-02-23T07:38:20.646Z,15.70
2019-02-23T07:39:26.155Z,16.20
2019-02-23T07:40:31.660Z,16.00
2019-02-23T07:41:37.164Z,16.00
2019-02-23T07:42:42.673Z,16.50
2019-02-23T07:43:48.196Z,17.20
2019-02-23T07:44:53.686Z,17.00
2019-02-23T07:45:59.192Z,17.50
2019-02-23T07:47:04.700Z,17.90
2019-02-23T07:48:10.204Z,17.20
2019-02-23T07:49:15.711Z,17.30
2019-02-23T07:50:21.217Z,16.00
2019-02-23T07:51:26.723Z,17.30
2019-02-23T07:52:32.240Z,17.70
2019-02-23T07:53:37.745Z,17.00
2019-02-23T07:54:43.247Z,15.60
2019-02-23T07:55:48.750Z,15.70
2019-02-23T07:56:54.257Z,14.80
2019-02-23T07:57:59.768Z,15.80
2019-02-23T07:59:05.273Z,17.30
2019-02-23T08:00:10.780Z,17.80
2019-02-23T08:01:16.287Z,17.20
2019-02-23T08:02:21.793Z,17.60
2019-02-23T08:03:27.305Z,17.90
2019-02-23T08:04:32.806Z,17.50
2019-02-23T08:05:38.309Z,17.10
2019-02-23T08:06:43.820Z,17.80
2019-02-23T08:07:49.331Z,17.20
2019-02-23T08:08:54.838Z,17.00
2019-02-23T08:10:00.355Z,17.80
2019-02-23T08:11:05.855Z,18.80
2019-02-23T08:12:11.354Z,17.50
2019-02-23T08:13:16.870Z,16.70
2019-02-23T08:14:22.420Z,17.50
2019-02-23T08:15:27.873Z,18.60
2019-02-23T08:16:33.388Z,17.90
2019-02-23T08:17:38.886Z,17.70
2019-02-23T08:18:44.406Z,17.50
2019-02-23T08:19:49.903Z,17.20
2019-02-23T08:20:55.408Z,16.50
2019-02-23T08:22:00.911Z,16.90
2019-02-23T08:23:06.414Z,16.50
2019-02-23T08:24:11.932Z,16.90
2019-02-23T08:25:17.438Z,17.20
2019-02-23T08:26:22.944Z,17.10
2019-02-23T08:27:28.451Z,16.60
2019-02-23T08:28:33.958Z,17.40
2019-02-23T08:29:39.473Z,17.40
2019-02-23T08:30:44.974Z,16.70
2019-02-23T08:31:50.479Z,16.30
2019-02-23T08:32:55.987Z,16.10
2019-02-23T08:34:01.492Z,15.80
2019-02-23T08:35:07.004Z,15.20
2019-02-23T08:36:12.506Z,16.00
2019-02-23T08:37:18.013Z,14.80
2019-02-23T08:38:23.527Z,15.30
2019-02-23T08:39:29.042Z,15.20
2019-02-23T08:40:34.534Z,14.20
2019-02-23T08:41:40.043Z,15.00
2019-02-23T08:42:45.556Z,15.20
2019-02-23T08:43:51.065Z,15.00
2019-02-23T08:44:56.568Z,16.30
2019-02-23T08:46:02.100Z,15.40
2019-02-23T08:47:07.597Z,15.00
2019-02-23T08:48:13.087Z,14.70
2019-02-23T08:49:18.599Z,15.20
2019-02-23T08:50:24.115Z,15.10
2019-02-23T08:51:29.613Z,14.90
2019-02-23T08:52:35.120Z,14.90
2019-02-23T08:53:40.624Z,15.00
2019-02-23T08:54:46.132Z,14.80
2019-02-23T08:55:51.644Z,15.20
2019-02-23T08:56:57.149Z,15.20
2019-02-23T08:58:02.654Z,15.20
2019-02-23T08:59:08.170Z,15.10
2019-02-23T09:00:13.669Z,15.20
2019-02-23T09:01:19.184Z,14.90
2019-02-23T09:02:24.688Z,18.90
2019-02-23T09:03:30.195Z,18.40
2019-02-23T09:04:35.702Z,14.70
2019-02-23T09:05:41.207Z,14.90
2019-02-23T09:06:47.035Z,14.70
2019-02-23T09:07:52.226Z,14.10
2019-02-23T09:08:57.737Z,14.50
2019-02-23T09:10:03.250Z,14.40
2019-02-23T09:11:08.764Z,14.20
2019-02-23T09:12:14.259Z,14.30
2019-02-23T09:13:19.764Z,14.20
2019-02-23T09:14:25.269Z,13.80
2019-02-23T09:15:30.782Z,14.20
2019-02-23T09:16:36.287Z,13.70
2019-02-23T09:17:41.791Z,14.80
2019-02-23T09:18:47.304Z,14.50
2019-02-23T09:19:52.816Z,14.20
2019-02-23T09:20:58.321Z,14.10
2019-02-23T09:22:03.830Z,14.70
2019-02-23T09:23:09.344Z,14.50
2019-02-23T09:24:14.849Z,14.30
2019-02-23T09:25:20.357Z,14.50
2019-02-23T09:26:25.866Z,13.60
2019-02-23T09:27:31.370Z,13.80
2019-02-23T09:28:36.878Z,13.50
2019-02-23T09:29:42.387Z,13.20
2019-02-23T09:30:47.901Z,13.10
2019-02-23T09:31:53.410Z,13.00
2019-02-23T09:32:58.918Z,13.50
2019-02-23T09:34:04.423Z,12.50
2019-02-23T09:35:09.929Z,12.60
2019-02-23T09:36:15.439Z,12.90
2019-02-23T09:37:20.957Z,11.80
2019-02-23T09:38:26.461Z,12.40
2019-02-23T09:39:31.961Z,13.10
2019-02-23T09:40:37.473Z,12.80
2019-02-23T09:41:42.979Z,12.20
2019-02-23T09:42:48.498Z,12.60
2019-02-23T09:43:54.005Z,12.50
2019-02-23T09:44:59.499Z,12.40
2019-02-23T09:46:05.013Z,12.10
2019-02-23T09:47:10.523Z,11.80
2019-02-23T09:48:16.037Z,12.40
2019-02-23T09:49:21.536Z,12.20
2019-02-23T09:50:27.057Z,12.20
2019-02-23T09:51:32.560Z,11.90
2019-02-23T09:52:38.057Z,11.20
2019-02-23T09:53:43.579Z,12.20
2019-02-23T09:54:49.096Z,12.50
2019-02-23T09:55:54.599Z,11.80
2019-02-23T09:57:00.105Z,12.10
2019-02-23T09:58:05.616Z,12.50
2019-02-23T09:59:11.121Z,12.50
2019-02-23T10:00:16.628Z,12.00
2019-02-23T10:01:22.139Z,13.10
2019-02-23T10:02:27.648Z,12.00
2019-02-23T10:03:33.155Z,11.30
2019-02-23T10:04:38.670Z,12.00
2019-02-23T10:05:44.176Z,11.30
2019-02-23T10:06:49.685Z,11.20
2019-02-23T10:07:55.207Z,11.90
2019-02-23T10:09:00.707Z,12.20
2019-02-23T10:10:06.205Z,12.20
2019-02-23T10:11:11.720Z,11.70
2019-02-23T10:12:17.227Z,11.50
2019-02-23T10:13:22.739Z,11.20
2019-02-23T10:14:28.245Z,11.80
2019-02-23T10:15:33.762Z,11.90
2019-02-23T10:16:39.260Z,11.80
2019-02-23T10:17:44.773Z,11.70
2019-02-23T10:18:50.283Z,11.30
2019-02-23T10:19:55.793Z,11.90
2019-02-23T10:21:01.301Z,12.20
2019-02-23T10:22:06.813Z,12.10
2019-02-23T10:23:21.610Z,12.10
2019-02-23T10:24:17.837Z,12.00
2019-02-23T10:25:23.341Z,11.90
2019-02-23T10:26:28.846Z,11.10
2019-02-23T10:27:34.363Z,12.10
2019-02-23T10:28:39.890Z,11.40
2019-02-23T10:29:45.375Z,11.70
2019-02-23T10:30:50.884Z,11.40
2019-02-23T10:31:56.395Z,11.80
2019-02-23T10:33:01.907Z,11.40
2019-02-23T10:34:07.416Z,11.00
2019-02-23T10:35:12.926Z,11.50
2019-02-23T10:36:18.434Z,10.50
2019-02-23T10:37:23.941Z,11.20
2019-02-23T10:38:29.450Z,11.40
2019-02-23T10:39:34.958Z,11.30
2019-02-23T10:40:40.475Z,11.00
2019-02-23T10:41:45.978Z,11.10
2019-02-23T10:42:51.544Z,10.80
2019-02-23T10:43:57.002Z,10.60
2019-02-23T10:45:02.506Z,11.10
2019-02-23T10:46:08.020Z,11.40
2019-02-23T10:47:13.518Z,11.90
2019-02-23T10:48:19.050Z,10.70
2019-02-23T10:49:24.549Z,11.50
2019-02-23T10:50:30.055Z,11.70
2019-02-23T10:51:35.567Z,10.80
2019-02-23T10:52:41.073Z,11.40
2019-02-23T10:53:46.592Z,11.00
2019-02-23T10:54:52.097Z,11.30
2019-02-23T10:55:57.605Z,11.30
2019-02-23T10:57:03.117Z,11.90
2019-02-23T10:58:08.624Z,10.70
2019-02-23T10:59:14.139Z,13.30
2019-02-23T11:00:19.654Z,11.40
2019-02-23T11:01:25.156Z,10.60
2019-02-23T11:02:30.676Z,11.20
2019-02-23T11:03:36.171Z,11.00
2019-02-23T11:04:41.688Z,10.50
2019-02-23T11:05:47.197Z,10.90
2019-02-23T11:06:52.713Z,10.50
2019-02-23T11:07:58.228Z,11.80
2019-02-23T11:09:03.734Z,10.90
2019-02-23T11:10:09.232Z,10.80
2019-02-23T11:11:14.748Z,11.00
2019-02-23T11:12:20.257Z,11.30
2019-02-23T11:13:25.771Z,10.10
2019-02-23T11:14:31.275Z,10.10
2019-02-23T11:15:36.787Z,10.20
2019-02-23T11:16:42.297Z,10.50
2019-02-23T11:17:47.816Z,10.80
2019-02-23T11:18:53.316Z,11.60
2019-02-23T11:19:58.834Z,10.50
2019-02-23T11:21:04.336Z,10.70
2019-02-23T11:22:09.868Z,9.30
2019-02-23T11:23:15.356Z,9.30
2019-02-23T11:24:20.874Z,9.30
2019-02-23T11:25:26.382Z,9.00
2019-02-23T11:26:31.888Z,9.50
2019-02-23T11:27:37.413Z,10.70
2019-02-23T11:28:42.912Z,8.40
2019-02-23T11:29:48.426Z,8.10
2019-02-23T11:30:53.937Z,8.20
2019-02-23T11:31:59.452Z,10.90
2019-02-23T11:33:04.956Z,8.40
2019-02-23T11:34:10.481Z,7.90
2019-02-23T11:35:17.282Z,7.80
2019-02-23T11:36:21.498Z,7.70
2019-02-23T11:37:27.009Z,7.00
2019-02-23T11:38:32.509Z,7.30
2019-02-23T11:39:38.022Z,7.30
2019-02-23T11:40:43.526Z,6.90
2019-02-23T11:41:49.045Z,7.60
2019-02-23T11:42:54.585Z,6.90
2019-02-23T11:44:00.066Z,6.50
2019-02-23T11:45:05.587Z,6.30
2019-02-23T11:46:11.097Z,9.90
2019-02-23T11:47:16.598Z,7.50
2019-02-23T11:48:22.131Z,6.40
2019-02-23T11:49:27.624Z,6.40
2019-02-23T11:50:33.139Z,6.20
2019-02-23T11:51:38.649Z,6.10
2019-02-23T11:52:44.164Z,6.70
2019-02-23T11:53:55.060Z,6.10
2019-02-23T11:54:55.186Z,6.70
2019-02-23T11:56:00.697Z,6.80
2019-02-23T11:57:06.224Z,7.30
2019-02-23T11:58:11.721Z,6.00
2019-02-23T11:59:17.232Z,6.00
2019-02-23T12:00:22.741Z,5.80
2019-02-23T12:01:28.255Z,6.00
2019-02-23T12:02:33.768Z,5.80
2019-02-23T12:03:39.288Z,6.20
2019-02-23T12:04:44.798Z,5.90
2019-02-23T12:05:50.306Z,6.10
2019-02-23T12:06:55.813Z,5.70
2019-02-23T12:08:01.340Z,6.20
2019-02-23T12:09:06.836Z,5.70
2019-02-23T12:10:12.358Z,5.60
2019-02-23T12:11:17.877Z,5.80
2019-02-23T12:12:23.377Z,5.40
2019-02-23T12:13:28.894Z,5.70
2019-02-23T12:14:34.406Z,6.10
2019-02-23T12:15:39.916Z,5.70
2019-02-23T12:16:45.447Z,5.30
2019-02-23T12:17:50.936Z,5.60
2019-02-23T12:18:56.517Z,5.80
2019-02-23T12:20:01.969Z,5.80
2019-02-23T12:21:07.495Z,5.90
2019-02-23T12:22:12.996Z,5.20
2019-02-23T12:23:18.525Z,5.90
2019-02-23T12:24:24.015Z,5.50
2019-02-23T12:25:29.517Z,5.80
2019-02-23T12:26:35.050Z,5.50
2019-02-23T12:27:40.549Z,5.50
2019-02-23T12:28:46.053Z,5.90
2019-02-23T12:29:51.573Z,5.70
2019-02-23T12:30:57.090Z,5.30
2019-02-23T12:32:02.598Z,6.30
2019-02-23T12:33:08.110Z,6.20
2019-02-23T12:34:13.635Z,5.10
2019-02-23T12:35:19.150Z,5.80
2019-02-23T12:36:24.652Z,5.80
2019-02-23T12:37:30.164Z,5.20
2019-02-23T12:38:35.667Z,5.30
2019-02-23T12:39:41.190Z,6.40
2019-02-23T12:40:46.705Z,5.60
2019-02-23T12:41:52.217Z,5.30
2019-02-23T12:42:57.729Z,6.40
2019-02-23T12:44:03.242Z,5.30
2019-02-23T12:45:08.756Z,5.60
2019-02-23T12:46:14.269Z,5.50
2019-02-23T12:47:19.793Z,6.90
2019-02-23T12:48:25.319Z,7.00
2019-02-23T12:49:30.813Z,16.30
2019-02-23T12:50:36.331Z,6.00
2019-02-23T12:51:41.844Z,5.40
2019-02-23T12:52:47.364Z,5.40
2019-02-23T12:53:52.876Z,5.30
2019-02-23T12:54:58.389Z,6.40
2019-02-23T12:56:03.899Z,5.60
2019-02-23T12:57:09.425Z,9.10
2019-02-23T12:58:14.943Z,5.40
2019-02-23T12:59:20.471Z,5.30
2019-02-23T13:00:25.982Z,5.10
2019-02-23T13:01:31.500Z,5.30
2019-02-23T13:02:37.008Z,6.00
2019-02-23T13:03:42.534Z,5.10
2019-02-23T13:04:48.053Z,5.10
2019-02-23T13:05:53.571Z,5.40
2019-02-23T13:06:59.093Z,5.20
2019-02-23T13:08:04.615Z,5.40
2019-02-23T13:09:10.141Z,5.50
2019-02-23T13:10:15.654Z,5.20
2019-02-23T13:11:21.175Z,4.90
2019-02-23T13:12:26.698Z,5.10
2019-02-23T13:13:32.221Z,4.80
2019-02-23T13:14:37.738Z,4.80
2019-02-23T13:15:43.262Z,5.00
2019-02-23T13:16:48.784Z,4.60
2019-02-23T13:17:54.316Z,5.20
2019-02-23T13:18:59.821Z,5.90
2019-02-23T13:20:05.347Z,4.90
2019-02-23T13:21:10.879Z,5.10
2019-02-23T13:22:16.396Z,4.80
2019-02-23T13:23:21.919Z,5.00
2019-02-23T13:24:28.508Z,5.00
2019-02-23T13:25:32.963Z,5.00
2019-02-23T13:26:38.493Z,5.10
2019-02-23T13:27:44.011Z,5.10
2019-02-23T13:28:50.242Z,4.90
2019-02-23T13:29:55.062Z,5.10
2019-02-23T13:31:00.585Z,5.00
2019-02-23T13:32:06.105Z,5.00
2019-02-23T13:33:11.631Z,5.00
2019-02-23T13:34:17.161Z,5.80
2019-02-23T13:35:22.679Z,6.90
2019-02-23T13:36:28.225Z,7.30
2019-02-23T13:37:33.729Z,7.00
2019-02-23T13:38:39.248Z,7.10
2019-02-23T13:39:44.778Z,7.40
2019-02-23T13:40:50.296Z,7.20
2019-02-23T13:41:55.831Z,7.30
2019-02-23T13:43:01.345Z,7.40
2019-02-23T13:44:06.881Z,7.20
2019-02-23T13:45:12.394Z,8.00
2019-02-23T13:46:17.929Z,8.40
2019-02-23T13:47:23.442Z,8.90
2019-02-23T13:48:28.973Z,8.70
2019-02-23T13:49:34.490Z,8.20
2019-02-23T13:50:40.008Z,7.90
2019-02-23T13:51:45.545Z,8.50
2019-02-23T13:52:51.051Z,8.40
2019-02-23T13:53:56.583Z,8.90
2019-02-23T13:55:02.113Z,8.70
2019-02-23T13:56:07.630Z,9.60
2019-02-23T13:57:13.149Z,9.60
2019-02-23T13:58:18.977Z,9.90
2019-02-23T13:59:24.199Z,9.90
2019-02-23T14:00:29.726Z,9.60
2019-02-23T14:01:35.255Z,9.30
2019-02-23T14:02:40.772Z,9.70
2019-02-23T14:03:46.301Z,9.70
2019-02-23T14:04:51.816Z,10.10
2019-02-23T14:05:57.341Z,9.70
2019-02-23T14:07:02.866Z,10.70
2019-02-23T14:08:08.395Z,9.80
2019-02-23T14:09:13.907Z,10.00